sensor_id;sensor_type;location;lat;lon;timestamp;pressure;altitude;pressure_sealevel;temperature;humidity
79413;BME280;68863;49.528;11.010;2023-07-20T00:00:20;97944.38;;;19.64;68.61
79413;BME280;68863;49.528;11.010;2023-07-20T00:01:20;97948.34;;;19.68;68.89
79413;BME280;68863;49.528;11.010;2023-07-20T00:02:20;97948.16;;;19.69;68.78
79413;BME280;68863;49.528;11.010;2023-07-20T00:03:21;97944.84;;;19.67;68.63
79413;BME280;68863;49.528;11.010;2023-07-20T00:04:25;97951.16;;;19.74;68.42
79413;BME280;68863;49.528;11.010;2023-07-20T00:05:25;97949.06;;;19.85;67.99
79413;BME280;68863;49.528;11.010;2023-07-20T00:06:25;97946.16;;;19.71;68.34
79413;BME280;68863;49.528;11.010;2023-07-20T00:07:27;97953.31;;;19.71;68.36
79413;BME280;68863;49.528;11.010;2023-07-20T00:08:28;97947.47;;;19.75;68.38
79413;BME280;68863;49.528;11.010;2023-07-20T00:09:29;97952.25;;;19.80;68.16
79413;BME280;68863;49.528;11.010;2023-07-20T00:10:29;97947.03;;;19.64;68.62
79413;BME280;68863;49.528;11.010;2023-07-20T00:11:29;97942.72;;;19.63;68.96
79413;BME280;68863;49.528;11.010;2023-07-20T00:12:29;97951.00;;;19.59;68.97
79413;BME280;68863;49.528;11.010;2023-07-20T00:13:30;97945.50;;;19.61;68.91
79413;BME280;68863;49.528;11.010;2023-07-20T00:14:30;97940.50;;;19.58;68.90
79413;BME280;68863;49.528;11.010;2023-07-20T00:15:31;97945.72;;;19.51;69.46
79413;BME280;68863;49.528;11.010;2023-07-20T00:16:32;97946.00;;;19.65;68.62
79413;BME280;68863;49.528;11.010;2023-07-20T00:17:32;97944.19;;;19.57;69.21
79413;BME280;68863;49.528;11.010;2023-07-20T00:18:33;97952.03;;;19.58;69.09
79413;BME280;68863;49.528;11.010;2023-07-20T00:19:33;97949.84;;;19.70;68.53
79413;BME280;68863;49.528;11.010;2023-07-20T00:20:35;97945.19;;;19.64;69.16
79413;BME280;68863;49.528;11.010;2023-07-20T00:21:35;97945.34;;;19.71;68.63
79413;BME280;68863;49.528;11.010;2023-07-20T00:22:38;97950.19;;;19.67;68.55
79413;BME280;68863;49.528;11.010;2023-07-20T00:23:38;97944.13;;;19.73;68.33
79413;BME280;68863;49.528;11.010;2023-07-20T00:24:39;97950.31;;;19.74;68.26
79413;BME280;68863;49.528;11.010;2023-07-20T00:25:39;97947.03;;;19.64;68.82
79413;BME280;68863;49.528;11.010;2023-07-20T00:26:39;97946.34;;;19.62;69.11
79413;BME280;68863;49.528;11.010;2023-07-20T00:27:40;97954.19;;;19.63;68.96
79413;BME280;68863;49.528;11.010;2023-07-20T00:28:40;97947.84;;;19.64;69.07
79413;BME280;68863;49.528;11.010;2023-07-20T00:29:41;97952.97;;;19.74;68.27
79413;BME280;68863;49.528;11.010;2023-07-20T00:30:41;97951.47;;;19.71;68.39
79413;BME280;68863;49.528;11.010;2023-07-20T00:31:41;97953.47;;;19.69;68.71
79413;BME280;68863;49.528;11.010;2023-07-20T00:32:43;97952.31;;;19.72;68.82
79413;BME280;68863;49.528;11.010;2023-07-20T00:33:43;97943.94;;;19.83;67.99
79413;BME280;68863;49.528;11.010;2023-07-20T00:34:44;97938.81;;;19.73;68.62
79413;BME280;68863;49.528;11.010;2023-07-20T00:35:44;97932.16;;;19.69;68.56
79413;BME280;68863;49.528;11.010;2023-07-20T00:36:45;97935.25;;;19.81;68.10
79413;BME280;68863;49.528;11.010;2023-07-20T00:37:45;97933.75;;;19.87;67.68
79413;BME280;68863;49.528;11.010;2023-07-20T00:38:45;97926.03;;;19.69;68.40
79413;BME280;68863;49.528;11.010;2023-07-20T00:39:45;97924.38;;;19.68;68.84
79413;BME280;68863;49.528;11.010;2023-07-20T00:40:46;97923.69;;;19.74;68.24
79413;BME280;68863;49.528;11.010;2023-07-20T00:41:46;97912.91;;;19.59;68.77
79413;BME280;68863;49.528;11.010;2023-07-20T00:42:46;97915.22;;;19.54;69.27
79413;BME280;68863;49.528;11.010;2023-07-20T00:43:47;97919.56;;;19.63;68.68
79413;BME280;68863;49.528;11.010;2023-07-20T00:44:47;97912.41;;;19.55;69.20
79413;BME280;68863;49.528;11.010;2023-07-20T00:45:47;97916.91;;;19.63;68.64
79413;BME280;68863;49.528;11.010;2023-07-20T00:46:48;97921.22;;;19.64;68.84
79413;BME280;68863;49.528;11.010;2023-07-20T00:47:48;97930.69;;;19.67;68.85
79413;BME280;68863;49.528;11.010;2023-07-20T00:48:48;97924.19;;;19.69;68.91
79413;BME280;68863;49.528;11.010;2023-07-20T00:49:50;97931.88;;;19.56;69.29
79413;BME280;68863;49.528;11.010;2023-07-20T00:50:51;97931.19;;;19.70;68.74
79413;BME280;68863;49.528;11.010;2023-07-20T00:51:51;97937.88;;;19.66;68.96
79413;BME280;68863;49.528;11.010;2023-07-20T00:52:52;97936.09;;;19.50;69.28
79413;BME280;68863;49.528;11.010;2023-07-20T00:53:53;97929.84;;;19.58;68.92
79413;BME280;68863;49.528;11.010;2023-07-20T00:54:53;97930.53;;;19.60;68.88
79413;BME280;68863;49.528;11.010;2023-07-20T00:55:56;97929.53;;;19.61;68.73
79413;BME280;68863;49.528;11.010;2023-07-20T00:56:57;97925.38;;;19.58;69.34
79413;BME280;68863;49.528;11.010;2023-07-20T00:57:59;97930.53;;;19.68;68.56
79413;BME280;68863;49.528;11.010;2023-07-20T00:59:00;97931.03;;;19.64;68.98
79413;BME280;68863;49.528;11.010;2023-07-20T01:00:01;97928.38;;;19.64;68.74
79413;BME280;68863;49.528;11.010;2023-07-20T01:01:01;97929.03;;;19.66;68.95
79413;BME280;68863;49.528;11.010;2023-07-20T01:02:02;97931.81;;;19.72;68.65
79413;BME280;68863;49.528;11.010;2023-07-20T01:03:02;97936.81;;;19.75;68.60
79413;BME280;68863;49.528;11.010;2023-07-20T01:04:02;97940.13;;;19.77;68.51
79413;BME280;68863;49.528;11.010;2023-07-20T01:05:05;97939.28;;;19.77;68.23
79413;BME280;68863;49.528;11.010;2023-07-20T01:06:23;97948.69;;;19.56;69.46
79413;BME280;68863;49.528;11.010;2023-07-20T01:07:27;97937.84;;;19.58;69.23
79413;BME280;68863;49.528;11.010;2023-07-20T01:09:42;97940.91;;;19.47;69.82
79413;BME280;68863;49.528;11.010;2023-07-20T01:10:54;97934.44;;;19.41;70.14
79413;BME280;68863;49.528;11.010;2023-07-20T01:12:08;97938.56;;;19.52;69.40
79413;BME280;68863;49.528;11.010;2023-07-20T01:13:14;97938.25;;;19.47;69.99
79413;BME280;68863;49.528;11.010;2023-07-20T01:14:16;97936.03;;;19.58;69.56
79413;BME280;68863;49.528;11.010;2023-07-20T01:15:17;97932.19;;;19.61;69.29
79413;BME280;68863;49.528;11.010;2023-07-20T01:16:17;97934.25;;;19.51;69.96
79413;BME280;68863;49.528;11.010;2023-07-20T01:17:17;97925.78;;;19.47;69.90
79413;BME280;68863;49.528;11.010;2023-07-20T01:18:18;97934.03;;;19.61;69.44
79413;BME280;68863;49.528;11.010;2023-07-20T01:19:18;97925.88;;;19.54;69.51
79413;BME280;68863;49.528;11.010;2023-07-20T01:20:20;97928.56;;;19.54;69.86
79413;BME280;68863;49.528;11.010;2023-07-20T01:21:27;97922.25;;;19.55;69.52
79413;BME280;68863;49.528;11.010;2023-07-20T01:25:57;97945.63;;;19.28;70.75
79413;BME280;68863;49.528;11.010;2023-07-20T01:27:23;97942.78;;;19.30;70.83
79413;BME280;68863;49.528;11.010;2023-07-20T01:30:24;97944.13;;;19.26;69.54
79413;BME280;68863;49.528;11.010;2023-07-20T01:31:28;97947.06;;;19.47;69.16
79413;BME280;68863;49.528;11.010;2023-07-20T01:32:30;97952.91;;;19.43;69.67
79413;BME280;68863;49.528;11.010;2023-07-20T01:33:32;97940.00;;;19.23;70.09
79413;BME280;68863;49.528;11.010;2023-07-20T01:34:34;97946.47;;;19.29;70.27
79413;BME280;68863;49.528;11.010;2023-07-20T01:35:35;97950.97;;;19.28;70.30
79413;BME280;68863;49.528;11.010;2023-07-20T01:36:37;97952.44;;;19.39;69.92
79413;BME280;68863;49.528;11.010;2023-07-20T01:37:38;97941.59;;;19.41;69.70
79413;BME280;68863;49.528;11.010;2023-07-20T01:38:39;97949.25;;;19.44;69.12
79413;BME280;68863;49.528;11.010;2023-07-20T01:39:40;97948.06;;;19.46;69.18
79413;BME280;68863;49.528;11.010;2023-07-20T01:40:41;97951.25;;;19.42;69.22
79413;BME280;68863;49.528;11.010;2023-07-20T01:41:42;97951.63;;;19.22;69.77
79413;BME280;68863;49.528;11.010;2023-07-20T01:42:44;97955.31;;;19.21;70.49
79413;BME280;68863;49.528;11.010;2023-07-20T01:43:45;97950.78;;;19.30;69.86
79413;BME280;68863;49.528;11.010;2023-07-20T01:44:46;97944.97;;;19.26;70.14
79413;BME280;68863;49.528;11.010;2023-07-20T01:45:46;97944.63;;;19.29;69.98
79413;BME280;68863;49.528;11.010;2023-07-20T01:46:46;97942.31;;;19.26;70.41
79413;BME280;68863;49.528;11.010;2023-07-20T01:47:46;97951.16;;;19.19;70.63
79413;BME280;68863;49.528;11.010;2023-07-20T01:48:49;97945.50;;;19.14;70.63
79413;BME280;68863;49.528;11.010;2023-07-20T01:49:50;97944.50;;;19.15;70.87
79413;BME280;68863;49.528;11.010;2023-07-20T01:50:51;97942.03;;;19.13;70.70
79413;BME280;68863;49.528;11.010;2023-07-20T01:51:51;97943.69;;;19.06;71.56
79413;BME280;68863;49.528;11.010;2023-07-20T01:52:51;97956.34;;;19.12;71.02
79413;BME280;68863;49.528;11.010;2023-07-20T01:53:51;97954.50;;;19.13;71.03
79413;BME280;68863;49.528;11.010;2023-07-20T01:54:52;97953.78;;;19.27;70.36
79413;BME280;68863;49.528;11.010;2023-07-20T01:55:53;97959.00;;;19.12;70.32
79413;BME280;68863;49.528;11.010;2023-07-20T01:56:54;97964.44;;;19.19;69.96
79413;BME280;68863;49.528;11.010;2023-07-20T01:57:55;97962.66;;;19.19;69.69
79413;BME280;68863;49.528;11.010;2023-07-20T01:58:55;97959.34;;;19.01;70.04
79413;BME280;68863;49.528;11.010;2023-07-20T01:59:55;97960.53;;;18.90;70.53
79413;BME280;68863;49.528;11.010;2023-07-20T02:00:56;97963.38;;;18.89;70.81
79413;BME280;68863;49.528;11.010;2023-07-20T02:01:56;97967.03;;;18.96;70.50
79413;BME280;68863;49.528;11.010;2023-07-20T02:02:56;97964.00;;;18.99;70.43
79413;BME280;68863;49.528;11.010;2023-07-20T02:03:56;97965.19;;;18.96;70.99
79413;BME280;68863;49.528;11.010;2023-07-20T02:04:57;97966.16;;;19.03;70.54
79413;BME280;68863;49.528;11.010;2023-07-20T02:05:57;97971.00;;;18.92;70.87
79413;BME280;68863;49.528;11.010;2023-07-20T02:06:57;97973.16;;;18.96;70.60
79413;BME280;68863;49.528;11.010;2023-07-20T02:07:58;97972.66;;;19.01;70.24
79413;BME280;68863;49.528;11.010;2023-07-20T02:08:58;97975.34;;;18.93;70.73
79413;BME280;68863;49.528;11.010;2023-07-20T02:09:59;97977.31;;;18.99;70.74
79413;BME280;68863;49.528;11.010;2023-07-20T02:10:59;97971.63;;;19.10;70.38
79413;BME280;68863;49.528;11.010;2023-07-20T02:11:59;97970.63;;;19.11;70.45
79413;BME280;68863;49.528;11.010;2023-07-20T02:13:00;97974.78;;;19.14;70.53
79413;BME280;68863;49.528;11.010;2023-07-20T02:14:00;97979.94;;;19.07;71.13
79413;BME280;68863;49.528;11.010;2023-07-20T02:15:02;97984.78;;;19.03;71.25
79413;BME280;68863;49.528;11.010;2023-07-20T02:16:02;97979.31;;;19.05;71.49
79413;BME280;68863;49.528;11.010;2023-07-20T02:17:03;97979.31;;;19.05;70.98
79413;BME280;68863;49.528;11.010;2023-07-20T02:18:03;97987.94;;;19.07;70.99
79413;BME280;68863;49.528;11.010;2023-07-20T02:19:03;97981.97;;;19.05;71.41
79413;BME280;68863;49.528;11.010;2023-07-20T02:20:04;97980.44;;;19.10;71.20
79413;BME280;68863;49.528;11.010;2023-07-20T02:21:05;97979.63;;;19.10;71.24
79413;BME280;68863;49.528;11.010;2023-07-20T02:22:05;97979.63;;;19.10;71.00
79413;BME280;68863;49.528;11.010;2023-07-20T02:23:06;97973.47;;;19.09;71.07
79413;BME280;68863;49.528;11.010;2023-07-20T02:24:06;97980.44;;;19.10;70.94
79413;BME280;68863;49.528;11.010;2023-07-20T02:25:07;97973.41;;;19.26;70.31
79413;BME280;68863;49.528;11.010;2023-07-20T02:26:07;97972.06;;;19.30;70.08
79413;BME280;68863;49.528;11.010;2023-07-20T02:27:08;97974.91;;;19.28;70.19
79413;BME280;68863;49.528;11.010;2023-07-20T02:28:08;97978.75;;;19.26;70.01
79413;BME280;68863;49.528;11.010;2023-07-20T02:29:09;97982.94;;;19.12;70.80
79413;BME280;68863;49.528;11.010;2023-07-20T02:30:11;97988.94;;;19.06;70.90
79413;BME280;68863;49.528;11.010;2023-07-20T02:31:11;97986.78;;;19.09;70.81
79413;BME280;68863;49.528;11.010;2023-07-20T02:32:12;97984.09;;;19.09;70.23
79413;BME280;68863;49.528;11.010;2023-07-20T02:33:12;97987.09;;;19.15;70.13
79413;BME280;68863;49.528;11.010;2023-07-20T02:34:12;97990.56;;;19.15;70.38
79413;BME280;68863;49.528;11.010;2023-07-20T02:35:14;97987.56;;;19.18;69.60
79413;BME280;68863;49.528;11.010;2023-07-20T02:36:14;97993.22;;;19.15;70.25
79413;BME280;68863;49.528;11.010;2023-07-20T02:37:17;97987.09;;;19.06;70.19
79413;BME280;68863;49.528;11.010;2023-07-20T02:38:18;97997.09;;;19.04;70.38
79413;BME280;68863;49.528;11.010;2023-07-20T02:39:18;97992.78;;;18.95;70.45
79413;BME280;68863;49.528;11.010;2023-07-20T02:40:18;97995.09;;;18.98;70.51
79413;BME280;68863;49.528;11.010;2023-07-20T02:41:18;97980.63;;;19.01;70.30
79413;BME280;68863;49.528;11.010;2023-07-20T02:42:19;97990.94;;;19.04;69.99
79413;BME280;68863;49.528;11.010;2023-07-20T02:43:19;97985.28;;;18.99;70.52
79413;BME280;68863;49.528;11.010;2023-07-20T02:44:20;97991.28;;;19.01;70.19
79413;BME280;68863;49.528;11.010;2023-07-20T02:45:20;97990.59;;;18.99;70.55
79413;BME280;68863;49.528;11.010;2023-07-20T02:46:20;97986.63;;;18.95;70.56
79413;BME280;68863;49.528;11.010;2023-07-20T02:47:20;97994.94;;;19.00;70.30
79413;BME280;68863;49.528;11.010;2023-07-20T02:48:21;97993.63;;;18.96;70.25
79413;BME280;68863;49.528;11.010;2023-07-20T02:49:21;97988.13;;;18.97;70.30
79413;BME280;68863;49.528;11.010;2023-07-20T02:50:22;97990.97;;;18.96;70.15
79413;BME280;68863;49.528;11.010;2023-07-20T02:51:22;97991.63;;;18.81;70.86
79413;BME280;68863;49.528;11.010;2023-07-20T02:52:22;97989.81;;;18.74;71.02
79413;BME280;68863;49.528;11.010;2023-07-20T02:53:24;97988.97;;;18.73;71.29
79413;BME280;68863;49.528;11.010;2023-07-20T02:54:24;97991.47;;;18.75;71.22
79413;BME280;68863;49.528;11.010;2023-07-20T02:55:24;97984.00;;;18.70;71.10
79413;BME280;68863;49.528;11.010;2023-07-20T02:56:25;97987.97;;;18.74;71.21
79413;BME280;68863;49.528;11.010;2023-07-20T02:57:25;97992.28;;;18.75;71.23
79413;BME280;68863;49.528;11.010;2023-07-20T02:58:25;97983.81;;;18.80;70.49
79413;BME280;68863;49.528;11.010;2023-07-20T02:59:25;97986.66;;;18.78;71.08
79413;BME280;68863;49.528;11.010;2023-07-20T03:00:26;97987.31;;;18.72;70.96
79413;BME280;68863;49.528;11.010;2023-07-20T03:01:26;97993.63;;;18.79;71.05
79413;BME280;68863;49.528;11.010;2023-07-20T03:02:30;97990.81;;;18.81;70.84
79413;BME280;68863;49.528;11.010;2023-07-20T03:03:30;97995.31;;;18.80;70.92
79413;BME280;68863;49.528;11.010;2023-07-20T03:04:30;97995.63;;;18.77;71.10
79413;BME280;68863;49.528;11.010;2023-07-20T03:05:30;97997.13;;;18.72;71.06
79413;BME280;68863;49.528;11.010;2023-07-20T03:06:31;97995.31;;;18.80;70.97
79413;BME280;68863;49.528;11.010;2023-07-20T03:07:31;97997.78;;;18.74;70.93
79413;BME280;68863;49.528;11.010;2023-07-20T03:08:34;97995.63;;;18.77;71.02
79413;BME280;68863;49.528;11.010;2023-07-20T03:09:36;98000.28;;;18.75;71.09
79413;BME280;68863;49.528;11.010;2023-07-20T03:10:40;97998.44;;;18.76;71.22
79413;BME280;68863;49.528;11.010;2023-07-20T03:11:40;97995.28;;;18.72;71.33
79413;BME280;68863;49.528;11.010;2023-07-20T03:12:41;97997.75;;;18.66;71.28
79413;BME280;68863;49.528;11.010;2023-07-20T03:13:42;97995.47;;;18.71;71.26
79413;BME280;68863;49.528;11.010;2023-07-20T03:14:42;97997.75;;;18.66;71.16
79413;BME280;68863;49.528;11.010;2023-07-20T03:15:42;98007.91;;;18.62;71.52
79413;BME280;68863;49.528;11.010;2023-07-20T03:16:45;98003.09;;;18.74;70.84
79413;BME280;68863;49.528;11.010;2023-07-20T03:17:46;98006.25;;;18.69;71.09
79413;BME280;68863;49.528;11.010;2023-07-20T03:18:46;98009.22;;;18.66;71.27
79413;BME280;68863;49.528;11.010;2023-07-20T03:19:46;98006.75;;;18.65;71.21
79413;BME280;68863;49.528;11.010;2023-07-20T03:20:47;98010.75;;;18.77;70.40
79413;BME280;68863;49.528;11.010;2023-07-20T03:21:48;98007.94;;;18.70;70.72
79413;BME280;68863;49.528;11.010;2023-07-20T03:22:49;98012.53;;;18.68;70.98
79413;BME280;68863;49.528;11.010;2023-07-20T03:23:49;98013.72;;;18.66;70.84
79413;BME280;68863;49.528;11.010;2023-07-20T03:24:50;98012.53;;;18.68;70.55
79413;BME280;68863;49.528;11.010;2023-07-20T03:25:51;98008.03;;;18.60;70.81
79413;BME280;68863;49.528;11.010;2023-07-20T03:26:54;98009.72;;;18.70;70.53
79413;BME280;68863;49.528;11.010;2023-07-20T03:27:55;98014.22;;;18.69;70.80
79413;BME280;68863;49.528;11.010;2023-07-20T03:28:55;98014.03;;;18.63;70.99
79413;BME280;68863;49.528;11.010;2023-07-20T03:29:55;98015.38;;;18.67;70.97
79413;BME280;68863;49.528;11.010;2023-07-20T03:30:56;98012.38;;;18.70;70.77
79413;BME280;68863;49.528;11.010;2023-07-20T03:31:57;98019.22;;;18.72;70.80
79413;BME280;68863;49.528;11.010;2023-07-20T03:32:59;98019.53;;;18.69;70.94
79413;BME280;68863;49.528;11.010;2023-07-20T03:33:59;98022.72;;;18.73;70.46
79413;BME280;68863;49.528;11.010;2023-07-20T03:34:59;98024.72;;;18.71;70.96
79413;BME280;68863;49.528;11.010;2023-07-20T03:36:00;98030.50;;;18.66;70.74
79413;BME280;68863;49.528;11.010;2023-07-20T03:37:00;98028.66;;;18.58;71.06
79413;BME280;68863;49.528;11.010;2023-07-20T03:38:01;98030.81;;;18.63;71.15
79413;BME280;68863;49.528;11.010;2023-07-20T03:39:01;98027.84;;;18.66;70.82
79413;BME280;68863;49.528;11.010;2023-07-20T03:40:11;98029.81;;;18.64;71.24
79413;BME280;68863;49.528;11.010;2023-07-20T03:41:17;98021.22;;;18.70;70.42
79413;BME280;68863;49.528;11.010;2023-07-20T03:42:19;98026.22;;;18.73;70.49
79413;BME280;68863;49.528;11.010;2023-07-20T03:43:28;98026.84;;;18.67;70.62
79413;BME280;68863;49.528;11.010;2023-07-20T03:44:33;98020.88;;;18.65;70.38
79413;BME280;68863;49.528;11.010;2023-07-20T03:46:02;98024.50;;;18.64;70.78
79413;BME280;68863;49.528;11.010;2023-07-20T03:47:32;98026.53;;;18.70;70.43
79413;BME280;68863;49.528;11.010;2023-07-20T03:49:07;98026.38;;;18.72;70.08
79413;BME280;68863;49.528;11.010;2023-07-20T03:50:43;98030.03;;;18.71;70.29
79413;BME280;68863;49.528;11.010;2023-07-20T03:52:32;98033.50;;;18.71;70.64
79413;BME280;68863;49.528;11.010;2023-07-20T03:53:42;98031.22;;;18.76;69.86
79413;BME280;68863;49.528;11.010;2023-07-20T03:54:50;98027.66;;;18.68;70.40
79413;BME280;68863;49.528;11.010;2023-07-20T03:56:00;98026.72;;;18.77;69.96
79413;BME280;68863;49.528;11.010;2023-07-20T03:57:00;98031.00;;;18.70;69.89
79413;BME280;68863;49.528;11.010;2023-07-20T03:58:03;98031.84;;;18.70;69.91
79413;BME280;68863;49.528;11.010;2023-07-20T03:59:03;98036.97;;;18.64;70.21
79413;BME280;68863;49.528;11.010;2023-07-20T04:00:04;98047.09;;;18.60;70.11
79413;BME280;68863;49.528;11.010;2023-07-20T04:01:08;98040.63;;;18.63;70.14
79413;BME280;68863;49.528;11.010;2023-07-20T04:02:09;98042.28;;;18.64;70.02
79413;BME280;68863;49.528;11.010;2023-07-20T04:03:10;98040.13;;;18.67;69.81
79413;BME280;68863;49.528;11.010;2023-07-20T04:04:10;98041.78;;;18.60;70.33
79413;BME280;68863;49.528;11.010;2023-07-20T04:05:10;98041.31;;;18.65;69.94
79413;BME280;68863;49.528;11.010;2023-07-20T04:06:10;98041.47;;;18.63;70.33
79413;BME280;68863;49.528;11.010;2023-07-20T04:07:11;98047.28;;;18.67;69.72
79413;BME280;68863;49.528;11.010;2023-07-20T04:08:11;98048.28;;;18.66;69.74
79413;BME280;68863;49.528;11.010;2023-07-20T04:09:12;98046.78;;;18.63;69.69
79413;BME280;68863;49.528;11.010;2023-07-20T04:10:12;98040.13;;;18.59;69.94
79413;BME280;68863;49.528;11.010;2023-07-20T04:11:13;98050.75;;;18.51;70.08
79413;BME280;68863;49.528;11.010;2023-07-20T04:12:13;98052.78;;;18.57;70.24
79413;BME280;68863;49.528;11.010;2023-07-20T04:13:14;98044.13;;;18.63;70.08
79413;BME280;68863;49.528;11.010;2023-07-20T04:14:14;98057.41;;;18.55;70.43
79413;BME280;68863;49.528;11.010;2023-07-20T04:15:14;98055.75;;;18.54;70.01
79413;BME280;68863;49.528;11.010;2023-07-20T04:16:14;98051.09;;;18.56;70.02
79413;BME280;68863;49.528;11.010;2023-07-20T04:17:15;98053.94;;;18.63;69.61
79413;BME280;68863;49.528;11.010;2023-07-20T04:18:15;98056.91;;;18.59;69.83
79413;BME280;68863;49.528;11.010;2023-07-20T04:19:15;98055.91;;;18.60;69.82
79413;BME280;68863;49.528;11.010;2023-07-20T04:20:18;98054.44;;;18.58;69.91
79413;BME280;68863;49.528;11.010;2023-07-20T04:21:18;98067.88;;;18.56;69.53
79413;BME280;68863;49.528;11.010;2023-07-20T04:22:18;98060.91;;;18.64;69.57
79413;BME280;68863;49.528;11.010;2023-07-20T04:23:18;98059.06;;;18.64;69.94
79413;BME280;68863;49.528;11.010;2023-07-20T04:24:19;98065.38;;;18.63;69.63
79413;BME280;68863;49.528;11.010;2023-07-20T04:25:19;98070.56;;;18.65;69.26
79413;BME280;68863;49.528;11.010;2023-07-20T04:26:20;98057.28;;;18.65;69.25
79413;BME280;68863;49.528;11.010;2023-07-20T04:27:20;98064.75;;;18.69;69.25
79413;BME280;68863;49.528;11.010;2023-07-20T04:28:20;98066.06;;;18.65;69.35
79413;BME280;68863;49.528;11.010;2023-07-20T04:29:20;98073.03;;;18.66;69.37
79413;BME280;68863;49.528;11.010;2023-07-20T04:30:21;98075.03;;;18.64;69.38
79413;BME280;68863;49.528;11.010;2023-07-20T04:31:22;98071.38;;;18.57;69.37
79413;BME280;68863;49.528;11.010;2023-07-20T04:32:22;98078.69;;;18.55;69.52
79413;BME280;68863;49.528;11.010;2023-07-20T04:33:23;98071.84;;;18.60;68.83
79413;BME280;68863;49.528;11.010;2023-07-20T04:34:23;98064.75;;;18.61;69.26
79413;BME280;68863;49.528;11.010;2023-07-20T04:36:45;98072.38;;;18.64;69.12
79413;BME280;68863;49.528;11.010;2023-07-20T04:37:46;98071.03;;;18.60;69.39
79413;BME280;68863;49.528;11.010;2023-07-20T04:38:46;98071.41;;;18.65;69.15
79413;BME280;68863;49.528;11.010;2023-07-20T04:39:46;98077.38;;;18.67;69.37
79413;BME280;68863;49.528;11.010;2023-07-20T04:40:48;98073.69;;;18.68;69.17
79413;BME280;68863;49.528;11.010;2023-07-20T04:41:49;98073.03;;;18.66;69.15
79413;BME280;68863;49.528;11.010;2023-07-20T04:42:49;98078.03;;;18.69;69.45
79413;BME280;68863;49.528;11.010;2023-07-20T04:43:49;98074.69;;;18.67;69.28
79413;BME280;68863;49.528;11.010;2023-07-20T04:44:49;98078.03;;;18.69;69.24
79413;BME280;68863;49.528;11.010;2023-07-20T04:45:50;98077.03;;;18.62;69.44
79413;BME280;68863;49.528;11.010;2023-07-20T04:46:50;98080.19;;;18.57;69.38
79413;BME280;68863;49.528;11.010;2023-07-20T04:47:51;98072.34;;;18.56;69.48
79413;BME280;68863;49.528;11.010;2023-07-20T04:48:51;98077.03;;;18.62;69.48
79413;BME280;68863;49.528;11.010;2023-07-20T04:49:52;98078.38;;;18.66;69.23
79413;BME280;68863;49.528;11.010;2023-07-20T04:50:52;98067.03;;;18.56;69.83
79413;BME280;68863;49.528;11.010;2023-07-20T04:51:52;98075.69;;;18.58;69.90
79413;BME280;68863;49.528;11.010;2023-07-20T04:52:52;98074.69;;;18.51;69.96
79413;BME280;68863;49.528;11.010;2023-07-20T04:53:53;98073.03;;;18.50;70.04
79413;BME280;68863;49.528;11.010;2023-07-20T04:54:53;98073.88;;;18.58;70.01
79413;BME280;68863;49.528;11.010;2023-07-20T04:55:53;98083.69;;;18.66;70.06
79413;BME280;68863;49.528;11.010;2023-07-20T04:56:54;98077.69;;;18.64;70.56
79413;BME280;68863;49.528;11.010;2023-07-20T04:57:54;98075.19;;;18.63;70.59
79413;BME280;68863;49.528;11.010;2023-07-20T04:58:55;98076.03;;;18.63;70.44
79413;BME280;68863;49.528;11.010;2023-07-20T04:59:55;98077.22;;;18.69;70.08
79413;BME280;68863;49.528;11.010;2023-07-20T05:00:55;98080.56;;;18.71;69.91
79413;BME280;68863;49.528;11.010;2023-07-20T05:01:56;98081.25;;;18.73;69.79
79413;BME280;68863;49.528;11.010;2023-07-20T05:02:56;98089.38;;;18.71;69.99
79413;BME280;68863;49.528;11.010;2023-07-20T05:03:57;98080.22;;;18.74;70.18
79413;BME280;68863;49.528;11.010;2023-07-20T05:04:57;98082.06;;;18.81;69.79
79413;BME280;68863;49.528;11.010;2023-07-20T05:05:57;98083.06;;;18.80;69.76
79413;BME280;68863;49.528;11.010;2023-07-20T05:06:58;98080.75;;;18.77;70.76
79413;BME280;68863;49.528;11.010;2023-07-20T05:07:58;98080.06;;;18.75;70.73
79413;BME280;68863;49.528;11.010;2023-07-20T05:08:58;98080.19;;;18.66;70.67
79413;BME280;68863;49.528;11.010;2023-07-20T05:09:58;98084.19;;;18.70;70.68
79413;BME280;68863;49.528;11.010;2023-07-20T05:10:59;98080.56;;;18.71;70.66
79413;BME280;68863;49.528;11.010;2023-07-20T05:11:59;98082.56;;;18.77;69.87
79413;BME280;68863;49.528;11.010;2023-07-20T05:13:00;98083.91;;;18.73;70.09
79413;BME280;68863;49.528;11.010;2023-07-20T05:14:00;98085.88;;;18.71;70.59
79413;BME280;68863;49.528;11.010;2023-07-20T05:15:00;98089.66;;;18.68;70.88
79413;BME280;68863;49.528;11.010;2023-07-20T05:16:01;98078.72;;;18.71;70.50
79413;BME280;68863;49.528;11.010;2023-07-20T05:17:01;98090.38;;;18.70;70.52
79413;BME280;68863;49.528;11.010;2023-07-20T05:18:01;98089.66;;;18.68;70.10
79413;BME280;68863;49.528;11.010;2023-07-20T05:19:02;98091.50;;;18.68;70.08
79413;BME280;68863;49.528;11.010;2023-07-20T05:20:02;98084.19;;;18.70;70.32
79413;BME280;68863;49.528;11.010;2023-07-20T05:21:05;98083.84;;;18.65;70.49
79413;BME280;68863;49.528;11.010;2023-07-20T05:22:05;98087.16;;;18.67;70.38
79413;BME280;68863;49.528;11.010;2023-07-20T05:23:06;98085.66;;;18.64;70.68
79413;BME280;68863;49.528;11.010;2023-07-20T05:24:06;98084.00;;;18.55;70.68
79413;BME280;68863;49.528;11.010;2023-07-20T05:25:08;98088.19;;;18.66;69.97
79413;BME280;68863;49.528;11.010;2023-07-20T05:26:08;98087.34;;;18.65;70.05
79413;BME280;68863;49.528;11.010;2023-07-20T05:27:09;98092.16;;;18.61;70.32
79413;BME280;68863;49.528;11.010;2023-07-20T05:28:09;98093.31;;;18.67;70.03
79413;BME280;68863;49.528;11.010;2023-07-20T05:29:09;98090.97;;;18.64;70.05
79413;BME280;68863;49.528;11.010;2023-07-20T05:30:10;98091.34;;;18.61;69.89